Time;durP1;ratioP1;P1;durP2;ratioP2;P2;SDS_P1;SDS_P2;PMS_P1;PMS_P2;Temp;Humidity;BMP_temperature;BMP_pressure;BME280_temperature;BME280_humidity;BME280_pressure;Samples;Min_cycle;Max_cycle;Signal;HPM_P1;HPM_P2
2023/12/29 00:00:59;;;;;;;28.30;13.67;;;6.40;99.90;;;;;;4398755;28;660148;-75
2023/12/29 00:03:46;;;;;;;25.53;13.00;;;6.20;99.90;;;;;;4420720;28;659444;-75
2023/12/29 00:06:33;;;;;;;25.10;12.10;;;6.20;99.90;;;;;;4403480;28;659705;-75
2023/12/29 00:09:21;;;;;;;26.47;10.43;;;6.30;99.90;;;;;;4429537;28;660127;-74
2023/12/29 00:12:08;;;;;;;22.67;11.93;;;6.40;99.90;;;;;;4399681;28;659526;-76
2023/12/29 00:14:56;;;;;;;27.37;12.77;;;6.30;99.90;;;;;;4426391;28;659658;-75
2023/12/29 00:17:44;;;;;;;24.70;10.63;;;6.30;99.90;;;;;;4394272;28;659844;-75
2023/12/29 00:20:31;;;;;;;20.93;11.47;;;6.30;99.90;;;;;;4413107;28;659981;-75
2023/12/29 00:23:18;;;;;;;20.63;9.33;;;6.30;99.90;;;;;;4399127;28;659892;-75
2023/12/29 00:26:05;;;;;;;24.15;11.77;;;6.40;99.90;;;;;;4426246;28;658463;-75
2023/12/29 00:28:52;;;;;;;20.37;10.30;;;6.40;99.90;;;;;;4405494;28;659803;-76
2023/12/29 00:31:41;;;;;;;22.17;10.90;;;6.40;99.90;;;;;;4421773;28;659704;-75
2023/12/29 00:34:28;;;;;;;20.40;10.23;;;6.40;99.90;;;;;;4405546;28;660080;-75
2023/12/29 00:37:15;;;;;;;23.90;10.37;;;6.40;99.90;;;;;;4430886;28;660320;-74
2023/12/29 00:40:03;;;;;;;22.27;10.83;;;6.40;99.90;;;;;;4409613;28;659754;-76
2023/12/29 00:42:50;;;;;;;11.20;5.00;;;6.50;99.90;;;;;;4429153;28;659548;-74
2023/12/29 00:45:37;;;;;;;20.27;8.87;;;6.60;99.90;;;;;;4420293;28;658818;-74
2023/12/29 00:48:26;;;;;;;19.40;9.53;;;6.50;99.90;;;;;;4423522;28;659043;-75
2023/12/29 00:51:13;;;;;;;22.10;11.93;;;6.40;99.90;;;;;;4412107;28;658693;-75
2023/12/29 00:54:00;;;;;;;20.00;11.07;;;6.40;99.90;;;;;;4431856;28;659922;-75
2023/12/29 00:56:49;;;;;;;23.80;10.97;;;6.50;99.90;;;;;;4408161;28;659769;-75
2023/12/29 00:59:38;;;;;;;29.03;12.63;;;6.50;99.90;;;;;;4424323;28;659230;-75
2023/12/29 01:02:25;;;;;;;25.20;11.63;;;6.50;99.90;;;;;;4418428;28;660102;-74
2023/12/29 01:05:17;;;;;;;13.10;7.20;;;6.50;99.90;;;;;;4414877;28;659892;-75
2023/12/29 01:08:05;;;;;;;22.57;12.20;;;6.50;99.90;;;;;;4393337;28;659440;-75
2023/12/29 01:10:52;;;;;;;21.97;10.83;;;6.40;99.90;;;;;;4424999;28;659773;-75
2023/12/29 01:13:40;;;;;;;22.57;12.50;;;6.50;99.90;;;;;;4433381;28;660089;-75
2023/12/29 01:16:27;;;;;;;23.37;11.97;;;6.40;99.90;;;;;;4428604;28;659747;-75
2023/12/29 01:19:14;;;;;;;24.73;12.17;;;6.40;99.90;;;;;;4392903;28;659685;-75
2023/12/29 01:22:02;;;;;;;24.63;12.53;;;6.40;99.90;;;;;;4420060;28;659694;-75
2023/12/29 01:24:50;;;;;;;25.87;12.30;;;6.30;99.90;;;;;;4398092;28;660217;-75
2023/12/29 01:27:37;;;;;;;22.90;11.53;;;6.30;99.90;;;;;;4412803;28;660113;-75
2023/12/29 01:30:24;;;;;;;24.67;12.43;;;6.30;99.90;;;;;;4421895;28;660020;-75
2023/12/29 01:33:12;;;;;;;23.27;12.03;;;6.30;99.90;;;;;;4422982;28;659801;-75
2023/12/29 01:35:59;;;;;;;18.07;7.77;;;6.30;99.90;;;;;;4413784;28;660255;-75
2023/12/29 01:38:47;;;;;;;22.77;11.87;;;6.20;99.90;;;;;;4425606;28;658773;-75
2023/12/29 01:41:35;;;;;;;21.70;11.40;;;6.20;99.90;;;;;;4414745;28;660801;-75
2023/12/29 01:44:23;;;;;;;11.10;5.60;;;6.20;99.90;;;;;;4397327;28;659823;-75
2023/12/29 01:47:12;;;;;;;23.77;10.10;;;6.30;99.90;;;;;;4417544;28;659352;-75
2023/12/29 01:49:59;;;;;;;29.40;12.57;;;6.20;99.90;;;;;;4404428;28;659997;-76
2023/12/29 01:52:46;;;;;;;21.13;10.53;;;6.20;99.90;;;;;;4415935;28;659766;-75
2023/12/29 01:55:35;;;;;;;19.97;9.70;;;6.20;99.90;;;;;;4397112;28;659979;-75
2023/12/29 01:58:22;;;;;;;23.63;10.65;;;6.20;99.90;;;;;;4414463;28;658495;-75
2023/12/29 02:01:10;;;;;;;18.17;9.60;;;6.10;99.90;;;;;;4423101;28;660161;-75
2023/12/29 02:03:57;;;;;;;20.30;10.93;;;6.10;99.90;;;;;;4423138;28;658236;-74
2023/12/29 02:06:44;;;;;;;21.33;11.03;;;6.00;99.90;;;;;;4408197;28;660266;-75
2023/12/29 02:09:33;;;;;;;24.87;11.87;;;6.00;99.90;;;;;;4421353;28;659828;-75
2023/12/29 02:12:22;;;;;;;24.17;11.97;;;6.00;99.90;;;;;;4395820;28;660407;-75
2023/12/29 02:15:10;;;;;;;23.83;12.17;;;5.80;99.90;;;;;;4407833;28;660432;-76
2023/12/29 02:18:00;;;;;;;20.37;10.13;;;5.80;99.90;;;;;;4414993;28;659938;-75
2023/12/29 02:20:47;;;;;;;21.87;11.53;;;5.90;99.90;;;;;;4416079;28;659377;-76
2023/12/29 02:23:34;;;;;;;18.95;5.70;;;5.80;99.90;;;;;;4432364;28;659625;-75
2023/12/29 02:26:24;;;;;;;22.13;11.53;;;5.90;99.90;;;;;;4428582;28;657991;-75
2023/12/29 02:29:11;;;;;;;19.00;8.67;;;5.80;99.90;;;;;;4413745;28;660039;-75
2023/12/29 02:31:59;;;;;;;23.80;12.07;;;5.80;99.90;;;;;;4408225;28;658489;-75
2023/12/29 02:34:46;;;;;;;20.43;11.60;;;5.80;99.90;;;;;;4423929;28;660089;-75
2023/12/29 02:37:33;;;;;;;20.67;10.87;;;5.70;99.90;;;;;;4406979;28;660159;-75
2023/12/29 02:40:20;;;;;;;21.93;11.80;;;5.60;99.90;;;;;;4428881;28;660763;-75
2023/12/29 02:43:09;;;;;;;20.80;11.32;;;5.50;99.90;;;;;;4414032;28;659883;-76
2023/12/29 02:45:56;;;;;;;25.43;12.07;;;5.40;99.90;;;;;;4424386;28;659490;-75
2023/12/29 02:48:43;;;;;;;24.30;12.03;;;5.30;99.90;;;;;;4409150;28;661044;-76
2023/12/29 02:51:31;;;;;;;21.83;11.23;;;5.30;99.90;;;;;;4420479;28;660667;-75
2023/12/29 02:54:18;;;;;;;22.73;11.43;;;5.30;99.90;;;;;;4402166;28;659836;-76
2023/12/29 02:57:05;;;;;;;22.87;11.30;;;5.40;99.90;;;;;;4415448;28;659797;-75
2023/12/29 02:59:54;;;;;;;24.73;11.45;;;5.40;99.90;;;;;;4406287;28;659679;-75
2023/12/29 03:02:41;;;;;;;21.17;11.30;;;5.40;99.90;;;;;;4439190;28;659611;-76
2023/12/29 03:05:28;;;;;;;22.83;11.57;;;5.40;99.90;;;;;;4403725;28;659661;-75
2023/12/29 03:08:15;;;;;;;25.23;13.17;;;5.30;99.90;;;;;;4422186;28;660286;-75
2023/12/29 03:11:03;;;;;;;26.43;11.83;;;5.40;99.90;;;;;;4407661;28;660420;-75
2023/12/29 03:13:50;;;;;;;19.50;10.73;;;5.40;99.90;;;;;;4420127;28;660450;-75
2023/12/29 03:16:39;;;;;;;21.00;9.97;;;5.40;99.90;;;;;;4424299;28;659526;-75
2023/12/29 03:19:27;;;;;;;21.23;9.50;;;5.50;99.90;;;;;;4438797;28;658587;-75
2023/12/29 03:22:14;;;;;;;19.10;9.23;;;5.60;99.90;;;;;;4419043;28;659405;-75
2023/12/29 03:25:01;;;;;;;19.17;9.20;;;5.80;99.90;;;;;;4424407;28;658894;-75
2023/12/29 03:27:48;;;;;;;13.67;7.53;;;5.80;99.90;;;;;;4410257;28;658866;-74
2023/12/29 03:30:36;;;;;;;17.47;8.53;;;6.00;99.90;;;;;;4437488;28;659263;-75
2023/12/29 03:33:25;;;;;;;18.43;9.43;;;6.00;99.90;;;;;;4404945;28;658985;-75
2023/12/29 03:36:13;;;;;;;16.38;8.00;;;5.80;99.90;;;;;;4410790;28;659494;-76
2023/12/29 03:39:00;;;;;;;19.43;8.73;;;5.80;99.90;;;;;;4431392;28;659181;-75
2023/12/29 03:41:47;;;;;;;17.10;7.97;;;5.80;99.90;;;;;;4429110;28;658648;-75
2023/12/29 03:44:34;;;;;;;17.17;7.70;;;5.90;99.90;;;;;;4433213;28;658781;-76
2023/12/29 03:47:22;;;;;;;5.63;2.73;;;6.00;99.90;;;;;;4428204;28;658902;-74
2023/12/29 03:50:11;;;;;;;13.33;7.63;;;6.20;99.90;;;;;;4407505;28;657688;-75
2023/12/29 03:52:58;;;;;;;15.57;7.87;;;6.10;99.90;;;;;;4406335;28;658707;-75
2023/12/29 03:55:45;;;;;;;16.13;7.27;;;6.00;99.90;;;;;;4431266;28;659398;-75
2023/12/29 03:58:32;;;;;;;15.70;7.67;;;5.70;99.90;;;;;;4413243;28;659055;-75
2023/12/29 04:01:20;;;;;;;14.43;7.40;;;5.70;99.90;;;;;;4423058;28;659397;-75
2023/12/29 04:04:07;;;;;;;15.10;8.07;;;5.40;99.90;;;;;;4428050;28;659284;-75
2023/12/29 04:06:55;;;;;;;18.33;8.17;;;5.50;99.90;;;;;;4403140;28;659535;-75
2023/12/29 04:09:43;;;;;;;14.47;7.97;;;5.40;99.90;;;;;;4409018;28;658723;-75
2023/12/29 04:12:30;;;;;;;13.63;7.33;;;5.30;99.90;;;;;;4422422;28;659188;-75
2023/12/29 04:15:18;;;;;;;16.20;7.33;;;5.10;99.90;;;;;;4428352;28;658936;-75
2023/12/29 04:18:05;;;;;;;15.97;7.37;;;5.00;99.90;;;;;;4423254;28;659877;-75
2023/12/29 04:20:52;;;;;;;13.33;7.63;;;5.00;99.90;;;;;;4410506;28;658602;-76
2023/12/29 04:23:41;;;;;;;19.20;9.77;;;4.90;99.90;;;;;;4430986;28;659077;-75
2023/12/29 04:26:28;;;;;;;17.03;9.00;;;4.90;99.90;;;;;;4402352;28;659123;-75
2023/12/29 04:29:15;;;;;;;16.55;8.23;;;4.80;99.90;;;;;;4432207;28;659366;-75
2023/12/29 04:32:03;;;;;;;19.23;9.63;;;4.80;99.90;;;;;;4403001;28;658892;-75
2023/12/29 04:34:50;;;;;;;16.03;8.97;;;5.00;99.90;;;;;;4441270;28;659251;-75
2023/12/29 04:37:37;;;;;;;12.57;7.40;;;5.00;99.90;;;;;;4410518;28;658529;-75
2023/12/29 04:40:26;;;;;;;15.13;6.90;;;4.90;99.90;;;;;;4432134;28;659172;-75
2023/12/29 04:43:13;;;;;;;17.63;7.77;;;5.00;99.90;;;;;;4410029;28;659098;-75
2023/12/29 04:46:01;;;;;;;12.17;7.00;;;5.20;99.90;;;;;;4432305;28;659374;-75
2023/12/29 04:48:48;;;;;;;12.40;5.90;;;5.20;99.90;;;;;;4403972;28;658665;-75
2023/12/29 04:51:35;;;;;;;11.37;5.53;;;5.30;99.90;;;;;;4434027;28;659021;-75
2023/12/29 04:54:24;;;;;;;12.17;6.10;;;5.50;99.90;;;;;;4406621;28;658903;-75
2023/12/29 04:57:13;;;;;;;15.20;6.78;;;5.60;99.90;;;;;;4424517;28;658430;-75
2023/12/29 05:00:01;;;;;;;13.73;6.07;;;5.70;99.90;;;;;;4400181;28;659204;-75
2023/12/29 05:02:48;;;;;;;11.80;5.70;;;5.80;99.90;;;;;;4408217;28;658719;-76
2023/12/29 05:05:35;;;;;;;12.73;6.00;;;5.90;99.90;;;;;;4430045;28;659423;-75
2023/12/29 05:08:22;;;;;;;10.30;5.35;;;5.90;99.90;;;;;;4403193;28;658570;-75
2023/12/29 05:11:10;;;;;;;9.80;4.90;;;6.10;99.90;;;;;;4434913;28;659159;-75
2023/12/29 05:13:58;;;;;;;9.93;4.70;;;6.10;99.90;;;;;;4425116;28;657912;-74
2023/12/29 05:16:45;;;;;;;10.37;5.30;;;6.20;99.90;;;;;;4406433;28;658195;-75
2023/12/29 05:19:32;;;;;;;12.07;5.38;;;6.20;99.90;;;;;;4402948;28;660554;-76
2023/12/29 05:22:20;;;;;;;9.33;4.83;;;6.30;99.90;;;;;;4425832;28;658672;-75
2023/12/29 05:25:08;;;;;;;10.07;5.20;;;6.30;99.90;;;;;;4428505;28;658139;-75
2023/12/29 05:27:55;;;;;;;9.27;4.60;;;6.50;99.90;;;;;;4398538;28;659425;-75
2023/12/29 05:30:44;;;;;;;11.13;4.82;;;6.50;99.90;;;;;;4411136;28;657917;-75
2023/12/29 05:33:31;;;;;;;10.07;5.10;;;6.50;99.90;;;;;;4430018;28;658595;-75
2023/12/29 05:36:18;;;;;;;9.77;5.80;;;6.50;99.90;;;;;;4408892;28;658183;-75
2023/12/29 05:39:06;;;;;;;12.40;6.53;;;6.50;99.90;;;;;;4422966;28;658152;-75
2023/12/29 05:41:53;;;;;;;11.35;5.57;;;6.50;99.90;;;;;;4396349;28;658731;-75
2023/12/29 05:44:41;;;;;;;11.60;5.63;;;6.50;99.90;;;;;;4419787;28;658836;-75
2023/12/29 05:47:30;;;;;;;10.30;4.67;;;6.50;99.90;;;;;;4400017;28;658991;-75
2023/12/29 05:50:18;;;;;;;11.95;5.47;;;6.50;99.90;;;;;;4402505;28;658590;-75
2023/12/29 05:53:06;;;;;;;11.57;5.80;;;6.60;99.90;;;;;;4416503;28;660043;-75
2023/12/29 05:55:53;;;;;;;11.03;5.40;;;6.60;99.90;;;;;;4409375;28;658852;-76
2023/12/29 05:58:41;;;;;;;10.23;5.43;;;6.70;99.90;;;;;;4425412;28;659996;-75
2023/12/29 06:01:28;;;;;;;10.83;5.17;;;6.80;99.90;;;;;;4401649;28;658328;-76
2023/12/29 06:04:17;;;;;;;9.37;4.40;;;6.80;99.90;;;;;;4419491;28;660223;-75
2023/12/29 06:07:04;;;;;;;10.43;4.33;;;6.90;99.90;;;;;;4401566;28;658553;-75
2023/12/29 06:09:52;;;;;;;9.20;4.07;;;7.00;99.90;;;;;;4436329;28;658321;-74
2023/12/29 06:12:39;;;;;;;9.67;5.00;;;7.00;99.90;;;;;;4413939;28;658023;-75
2023/12/29 06:15:26;;;;;;;13.27;5.47;;;7.00;99.90;;;;;;4432739;28;657310;-75
2023/12/29 06:18:13;;;;;;;9.70;4.90;;;7.00;99.90;;;;;;4409627;28;658476;-75
2023/12/29 06:21:02;;;;;;;8.33;4.70;;;7.00;99.90;;;;;;4437067;28;658400;-74
2023/12/29 06:23:50;;;;;;;6.95;3.88;;;7.10;99.90;;;;;;4410897;28;657870;-75
2023/12/29 06:26:41;;;;;;;7.63;4.10;;;7.10;99.90;;;;;;4435345;28;657182;-75
2023/12/29 06:29:28;;;;;;;8.63;3.80;;;7.30;99.90;;;;;;4404690;28;657892;-75
2023/12/29 06:32:15;;;;;;;7.73;3.97;;;7.40;99.90;;;;;;4425976;28;658474;-75
2023/12/29 06:35:03;;;;;;;5.60;3.37;;;7.40;99.90;;;;;;4407960;28;658031;-75
2023/12/29 06:37:52;;;;;;;7.03;3.67;;;7.40;99.90;;;;;;4430995;28;658328;-75
2023/12/29 06:40:39;;;;;;;3.93;2.27;;;7.40;99.90;;;;;;4404570;28;658065;-75
2023/12/29 06:43:26;;;;;;;5.23;2.13;;;7.40;99.90;;;;;;4436828;28;658213;-74
2023/12/29 06:46:14;;;;;;;7.40;3.27;;;7.70;99.90;;;;;;4405053;28;658225;-75
2023/12/29 06:49:01;;;;;;;5.63;1.93;;;7.80;99.90;;;;;;4426838;28;657619;-75
2023/12/29 06:51:49;;;;;;;4.30;1.93;;;7.80;99.90;;;;;;4406527;28;658808;-74
2023/12/29 06:54:38;;;;;;;2.53;1.10;;;7.90;99.90;;;;;;4441131;28;656939;-75
2023/12/29 06:57:25;;;;;;;6.03;2.90;;;8.00;99.90;;;;;;4399300;28;658370;-74
2023/12/29 07:00:13;;;;;;;5.70;2.00;;;8.00;99.90;;;;;;4412412;28;657528;-75
2023/12/29 07:03:01;;;;;;;3.53;1.73;;;8.00;99.90;;;;;;4433034;28;658519;-75
2023/12/29 07:05:48;;;;;;;5.87;1.73;;;8.00;99.90;;;;;;4405731;28;658213;-75
2023/12/29 07:08:36;;;;;;;4.13;2.08;;;8.00;99.90;;;;;;4427993;28;658261;-74
2023/12/29 07:11:24;;;;;;;3.57;1.67;;;8.00;99.90;;;;;;4411094;28;658193;-74
2023/12/29 07:14:12;;;;;;;5.73;3.20;;;8.00;99.90;;;;;;4422527;28;656970;-74
2023/12/29 07:16:59;;;;;;;6.97;2.73;;;8.00;99.90;;;;;;4401590;28;658162;-75
2023/12/29 07:19:46;;;;;;;5.97;3.27;;;7.90;99.90;;;;;;4426774;28;657774;-75
2023/12/29 07:22:33;;;;;;;4.03;1.30;;;8.00;99.90;;;;;;4406995;28;657301;-75
2023/12/29 07:25:21;;;;;;;8.47;3.83;;;8.00;99.90;;;;;;4425579;28;657468;-75
2023/12/29 07:28:09;;;;;;;7.03;3.07;;;8.00;99.90;;;;;;4402179;28;658709;-75
2023/12/29 07:30:56;;;;;;;7.80;4.10;;;7.90;99.90;;;;;;4435211;28;657363;-75
2023/12/29 07:33:44;;;;;;;6.97;2.27;;;7.90;99.90;;;;;;4407922;28;658486;-74
2023/12/29 07:36:31;;;;;;;6.47;2.60;;;7.90;99.90;;;;;;4414730;28;657926;-74
2023/12/29 07:39:19;;;;;;;10.20;3.50;;;7.80;99.90;;;;;;4406968;28;657919;-74
2023/12/29 07:42:06;;;;;;;9.37;3.87;;;7.80;99.90;;;;;;4421703;28;659023;-74
2023/12/29 07:44:56;;;;;;;7.70;3.17;;;7.70;99.90;;;;;;4405394;28;657664;-74
2023/12/29 07:47:43;;;;;;;6.67;3.33;;;7.90;99.90;;;;;;4403679;28;657511;-74
2023/12/29 07:50:30;;;;;;;3.07;1.63;;;7.90;99.90;;;;;;4421233;28;657706;-74
2023/12/29 07:53:18;;;;;;;8.93;4.30;;;7.90;99.90;;;;;;4407375;28;657516;-74
2023/12/29 07:56:06;;;;;;;11.23;4.20;;;8.00;99.90;;;;;;4429112;28;658639;-74
2023/12/29 07:58:53;;;;;;;7.63;3.57;;;8.00;99.90;;;;;;4409798;28;659439;-74
2023/12/29 08:01:42;;;;;;;9.63;4.40;;;8.10;99.90;;;;;;4427506;28;657659;-73
2023/12/29 08:04:29;;;;;;;8.67;3.97;;;8.10;99.90;;;;;;4396871;28;658447;-74
2023/12/29 08:07:16;;;;;;;9.03;4.80;;;8.10;99.90;;;;;;4413851;28;657786;-73
2023/12/29 08:10:04;;;;;;;6.80;3.38;;;8.10;99.90;;;;;;4408480;28;657925;-75
2023/12/29 08:12:51;;;;;;;7.80;3.13;;;8.20;99.90;;;;;;4426306;28;657667;-74
2023/12/29 08:15:39;;;;;;;8.43;4.43;;;8.30;99.90;;;;;;4401699;28;657594;-74
2023/12/29 08:18:28;;;;;;;6.25;3.22;;;8.30;99.90;;;;;;4422959;28;657828;-73
2023/12/29 08:21:19;;;;;;;2.80;1.47;;;8.40;99.90;;;;;;4398069;28;657493;-74
2023/12/29 08:24:07;;;;;;;8.73;4.10;;;8.40;99.90;;;;;;4406482;28;658038;-74
2023/12/29 08:26:54;;;;;;;6.80;3.60;;;8.50;99.90;;;;;;4401474;28;657354;-74
2023/12/29 08:29:41;;;;;;;7.27;3.17;;;8.60;99.90;;;;;;4417345;28;658007;-74
2023/12/29 08:32:28;;;;;;;9.23;3.67;;;8.80;99.90;;;;;;4405219;28;657947;-75
2023/12/29 08:35:17;;;;;;;8.67;3.73;;;8.80;99.90;;;;;;4428948;28;658109;-74
2023/12/29 08:38:04;;;;;;;7.33;3.47;;;9.00;99.90;;;;;;4399628;28;657883;-74
2023/12/29 08:40:51;;;;;;;8.37;2.90;;;9.00;99.90;;;;;;4431893;28;657534;-75
2023/12/29 08:43:38;;;;;;;5.17;2.17;;;9.10;99.90;;;;;;4412345;28;658661;-73
2023/12/29 08:46:26;;;;;;;6.13;2.75;;;9.20;99.90;;;;;;4427204;28;657786;-74
2023/12/29 08:49:13;;;;;;;4.33;1.43;;;9.30;99.90;;;;;;4407884;28;658187;-74
2023/12/29 08:52:01;;;;;;;5.53;3.30;;;9.30;99.90;;;;;;4429037;28;659399;-74
2023/12/29 08:54:48;;;;;;;7.70;1.90;;;9.30;99.90;;;;;;4401778;28;658321;-74
2023/12/29 08:57:36;;;;;;;4.00;2.27;;;9.40;99.90;;;;;;4439236;28;657945;-74
2023/12/29 09:00:23;;;;;;;4.37;2.50;;;9.30;99.90;;;;;;4397713;28;658020;-74
2023/12/29 09:03:10;;;;;;;5.33;2.57;;;9.30;99.90;;;;;;4422918;28;657757;-75
2023/12/29 09:05:58;;;;;;;3.50;2.27;;;9.30;99.90;;;;;;4414423;28;657326;-74
2023/12/29 09:08:47;;;;;;;6.00;2.30;;;9.40;99.90;;;;;;4422291;28;658242;-74
2023/12/29 09:11:34;;;;;;;4.37;2.70;;;9.40;99.90;;;;;;4413672;28;658475;-75
2023/12/29 09:14:21;;;;;;;5.20;2.90;;;9.40;99.90;;;;;;4431517;28;657235;-74
2023/12/29 09:17:09;;;;;;;6.30;2.50;;;9.40;99.90;;;;;;4405397;28;657719;-74
2023/12/29 09:19:56;;;;;;;2.80;1.70;;;9.50;99.90;;;;;;4423691;28;657872;-74
2023/12/29 09:22:43;;;;;;;6.73;2.83;;;9.50;99.90;;;;;;4411408;28;658001;-75
2023/12/29 09:25:32;;;;;;;4.97;2.57;;;9.40;99.90;;;;;;4432303;28;657580;-74
2023/12/29 09:28:19;;;;;;;3.17;1.50;;;9.50;99.90;;;;;;4402128;28;657358;-74
2023/12/29 09:31:06;;;;;;;3.00;1.10;;;9.60;99.90;;;;;;4429266;28;656941;-74
2023/12/29 09:33:53;;;;;;;4.57;2.30;;;9.50;99.90;;;;;;4396843;28;657697;-75
2023/12/29 09:36:40;;;;;;;1.93;0.87;;;9.60;99.90;;;;;;4425199;28;657689;-74
2023/12/29 09:39:28;;;;;;;3.47;2.28;;;9.70;99.90;;;;;;4410997;28;657897;-75
2023/12/29 09:42:20;;;;;;;3.90;1.97;;;9.80;99.90;;;;;;4426081;28;658110;-74
2023/12/29 09:45:10;;;;;;;5.67;2.50;;;10.20;99.90;;;;;;4407521;28;658013;-75
2023/12/29 09:47:58;;;;;;;2.50;1.07;;;10.30;99.90;;;;;;4404819;28;658542;-74
2023/12/29 09:50:45;;;;;;;3.30;1.63;;;10.20;99.90;;;;;;4423983;28;659967;-74
2023/12/29 09:53:33;;;;;;;4.00;1.23;;;10.30;99.90;;;;;;4406182;28;658657;-75
2023/12/29 09:56:20;;;;;;;3.43;1.87;;;10.40;99.90;;;;;;4422473;28;660041;-75
2023/12/29 09:59:09;;;;;;;3.90;2.33;;;10.10;99.90;;;;;;4426788;28;658697;-75
2023/12/29 10:01:56;;;;;;;4.80;2.43;;;9.90;99.90;;;;;;4433647;28;658728;-76
2023/12/29 10:04:44;;;;;;;2.80;1.52;;;10.00;99.90;;;;;;4402134;28;658081;-75
2023/12/29 10:07:33;;;;;;;5.17;2.57;;;10.10;99.90;;;;;;4427200;28;658331;-76
2023/12/29 10:10:20;;;;;;;4.80;2.57;;;10.00;99.90;;;;;;4409566;28;659189;-75
2023/12/29 10:13:07;;;;;;;2.37;1.63;;;10.10;99.90;;;;;;4415497;28;659576;-76
2023/12/29 10:15:58;;;;;;;4.73;2.43;;;10.10;99.90;;;;;;4428293;28;659315;-75
2023/12/29 10:18:47;;;;;;;3.77;2.00;;;10.30;99.90;;;;;;4408500;28;659841;-75
2023/12/29 10:21:38;;;;;;;2.17;1.50;;;10.50;99.90;;;;;;4414129;28;659674;-74
2023/12/29 10:24:25;;;;;;;4.87;1.73;;;10.80;99.90;;;;;;4408366;28;658315;-75
2023/12/29 10:27:14;;;;;;;4.10;2.17;;;11.10;99.90;;;;;;4405273;28;659299;-75
2023/12/29 10:30:02;;;;;;;3.43;2.00;;;11.00;99.90;;;;;;4433374;28;658932;-75
2023/12/29 10:32:52;;;;;;;4.10;2.50;;;10.90;99.90;;;;;;4406258;28;659655;-75
2023/12/29 10:35:39;;;;;;;3.43;1.97;;;10.90;99.90;;;;;;4403550;28;659485;-75
2023/12/29 10:38:27;;;;;;;2.00;1.10;;;11.20;99.90;;;;;;4435452;28;658614;-75
2023/12/29 10:41:15;;;;;;;2.77;1.60;;;11.40;99.90;;;;;;4402019;28;660007;-75
2023/12/29 10:44:03;;;;;;;4.00;1.73;;;11.10;99.90;;;;;;4424659;28;658521;-75
2023/12/29 10:46:50;;;;;;;5.60;2.20;;;10.70;99.90;;;;;;4403739;28;658914;-75
2023/12/29 10:49:39;;;;;;;3.03;1.63;;;10.80;99.90;;;;;;4428151;28;658745;-76
2023/12/29 10:52:27;;;;;;;4.73;2.10;;;10.70;99.90;;;;;;4428569;28;660613;-75
2023/12/29 10:55:14;;;;;;;3.83;2.07;;;10.80;99.90;;;;;;4410597;28;658840;-76
2023/12/29 10:58:01;;;;;;;3.10;1.57;;;11.20;99.90;;;;;;4427333;28;659255;-75
2023/12/29 11:00:48;;;;;;;4.50;2.27;;;11.00;99.90;;;;;;4407504;28;658399;-75
2023/12/29 11:03:36;;;;;;;7.32;2.65;;;10.80;99.90;;;;;;4425167;28;659535;-75
2023/12/29 11:06:24;;;;;;;1.73;1.20;;;10.60;99.90;;;;;;4409368;28;658814;-76
2023/12/29 11:09:11;;;;;;;3.37;1.83;;;10.70;99.90;;;;;;4433210;28;659089;-75
2023/12/29 11:12:00;;;;;;;4.10;1.80;;;10.80;99.90;;;;;;4414272;28;658856;-75
2023/12/29 11:14:48;;;;;;;2.70;1.47;;;10.70;99.90;;;;;;4429493;28;658344;-75
2023/12/29 11:17:35;;;;;;;4.30;2.00;;;10.90;99.90;;;;;;4405052;28;659750;-76
2023/12/29 11:20:23;;;;;;;1.97;1.23;;;10.80;99.90;;;;;;4410848;28;659053;-75
2023/12/29 11:23:13;;;;;;;5.80;2.50;;;10.80;99.90;;;;;;4432961;28;658515;-75
2023/12/29 11:26:00;;;;;;;2.97;1.90;;;10.80;99.90;;;;;;4406203;28;659635;-76
2023/12/29 11:28:48;;;;;;;4.77;2.40;;;11.00;99.90;;;;;;4415089;28;658287;-75
2023/12/29 11:31:35;;;;;;;5.10;2.13;;;11.30;99.90;;;;;;4423257;28;659263;-76
2023/12/29 11:34:25;;;;;;;4.73;2.30;;;11.50;99.90;;;;;;4406548;28;659674;-75
2023/12/29 11:37:18;;;;;;;5.27;2.50;;;11.20;99.90;;;;;;4419482;28;659204;-76
2023/12/29 11:40:12;;;;;;;4.57;2.60;;;11.20;99.90;;;;;;4406353;28;659439;-76
2023/12/29 11:43:00;;;;;;;4.90;2.20;;;11.20;99.90;;;;;;4403831;28;658273;-76
2023/12/29 11:45:48;;;;;;;5.03;2.23;;;11.20;99.90;;;;;;4409638;28;659145;-76
2023/12/29 11:48:54;;;;;;;6.43;2.40;;;11.10;99.90;;;;;;4423707;28;659398;-76
2023/12/29 11:51:43;;;;;;;2.20;1.43;;;11.10;99.90;;;;;;4397228;28;658995;-76
2023/12/29 11:54:30;;;;;;;2.60;1.83;;;11.10;99.90;;;;;;4407403;28;659491;-75
2023/12/29 11:57:32;;;;;;;3.53;2.00;;;11.10;99.90;;;;;;4408035;28;658408;-76
2023/12/29 12:00:19;;;;;;;1.90;1.20;;;11.10;99.90;;;;;;4401919;28;659058;-76
2023/12/29 12:03:15;;;;;;;4.17;2.40;;;11.00;99.90;;;;;;4425383;28;658543;-75
2023/12/29 12:06:03;;;;;;;5.37;2.20;;;10.60;99.90;;;;;;4392684;28;659332;-76
2023/12/29 12:08:50;;;;;;;4.77;2.30;;;10.40;99.90;;;;;;4438741;28;658715;-77
2023/12/29 12:11:44;;;;;;;3.33;2.07;;;10.20;99.90;;;;;;4416322;28;658866;-76
2023/12/29 12:14:51;;;;;;;5.97;2.67;;;10.60;99.90;;;;;;4408793;28;659354;-75
2023/12/29 12:17:39;;;;;;;3.03;2.17;;;10.30;99.90;;;;;;4394095;28;658719;-76
2023/12/29 12:20:28;;;;;;;2.97;1.73;;;10.30;99.90;;;;;;4423731;28;659237;-76
2023/12/29 12:23:18;;;;;;;3.70;2.20;;;10.40;99.90;;;;;;4406119;28;659346;-76
2023/12/29 12:26:06;;;;;;;5.80;2.13;;;10.50;99.90;;;;;;4409232;28;659585;-76
2023/12/29 12:28:53;;;;;;;6.17;2.83;;;10.60;99.90;;;;;;4402936;28;658693;-76
2023/12/29 12:31:54;;;;;;;3.97;2.03;;;10.50;99.90;;;;;;4422815;28;659188;-76
2023/12/29 12:34:41;;;;;;;4.03;2.37;;;10.40;99.90;;;;;;4412168;28;658272;-77
2023/12/29 12:37:29;;;;;;;4.53;2.57;;;10.30;99.90;;;;;;4405099;28;659160;-76
2023/12/29 12:40:27;;;;;;;4.03;1.77;;;10.40;99.90;;;;;;4435236;28;658426;-75
2023/12/29 12:43:15;;;;;;;3.77;2.30;;;10.40;99.90;;;;;;4405233;28;658887;-76
2023/12/29 12:46:03;;;;;;;3.23;2.13;;;10.30;99.90;;;;;;4409383;28;659461;-77
2023/12/29 12:48:51;;;;;;;4.23;2.27;;;10.50;99.90;;;;;;4422666;28;659984;-77
2023/12/29 12:51:38;;;;;;;2.23;1.70;;;10.50;99.90;;;;;;4407571;28;658468;-76
2023/12/29 12:54:26;;;;;;;4.23;2.23;;;10.60;99.90;;;;;;4422969;28;659490;-76
2023/12/29 12:57:13;;;;;;;4.77;1.83;;;10.60;99.90;;;;;;4410793;28;658952;-76
2023/12/29 13:00:00;;;;;;;4.23;2.40;;;10.70;99.90;;;;;;4424112;28;659197;-76
2023/12/29 13:02:48;;;;;;;4.23;2.00;;;10.50;99.90;;;;;;4397348;28;659032;-76
2023/12/29 13:05:36;;;;;;;3.57;2.13;;;10.60;99.90;;;;;;4408637;28;659491;-76
2023/12/29 13:08:23;;;;;;;2.93;1.90;;;10.80;99.90;;;;;;4388470;28;658806;-77
2023/12/29 13:11:12;;;;;;;3.23;1.67;;;10.80;99.90;;;;;;4422490;28;658432;-76
2023/12/29 13:14:01;;;;;;;4.38;2.50;;;10.50;99.90;;;;;;4395947;28;659784;-77
2023/12/29 13:16:50;;;;;;;2.00;1.50;;;10.60;99.90;;;;;;4396354;28;658718;-77
2023/12/29 13:19:38;;;;;;;4.80;2.43;;;10.60;99.90;;;;;;4420162;28;659239;-77
2023/12/29 13:22:28;;;;;;;6.07;2.67;;;10.40;99.90;;;;;;4427907;28;659683;-76
2023/12/29 13:25:19;;;;;;;5.60;2.97;;;10.40;99.90;;;;;;4405052;28;658943;-75
2023/12/29 13:28:07;;;;;;;4.27;2.37;;;10.30;99.90;;;;;;4406884;28;658833;-76
2023/12/29 13:30:54;;;;;;;5.57;3.10;;;10.10;99.90;;;;;;4395903;28;660670;-76
2023/12/29 13:33:47;;;;;;;3.23;1.80;;;10.20;99.90;;;;;;4429065;28;659189;-76
2023/12/29 13:36:36;;;;;;;5.47;2.53;;;10.20;99.90;;;;;;4399379;28;659031;-75
2023/12/29 13:39:28;;;;;;;4.23;2.17;;;10.00;99.90;;;;;;4394259;28;658917;-76
2023/12/29 13:42:15;;;;;;;3.93;2.10;;;10.00;99.90;;;;;;4397494;28;659394;-75
2023/12/29 13:45:03;;;;;;;4.97;2.53;;;10.00;99.90;;;;;;4402994;28;658933;-76
2023/12/29 13:47:50;;;;;;;4.33;2.30;;;10.00;99.90;;;;;;4429795;28;659200;-75
2023/12/29 13:50:40;;;;;;;2.93;1.63;;;9.80;99.90;;;;;;4399392;28;658978;-76
2023/12/29 13:53:29;;;;;;;4.80;2.43;;;9.80;99.90;;;;;;4402795;28;657749;-75
2023/12/29 13:56:18;;;;;;;4.53;2.37;;;9.70;99.90;;;;;;4420006;28;656964;-75
2023/12/29 13:59:07;;;;;;;7.10;2.70;;;9.60;99.90;;;;;;4396091;28;657512;-76
2023/12/29 14:01:54;;;;;;;2.40;1.70;;;9.60;99.90;;;;;;4402902;28;658193;-75
2023/12/29 14:04:41;;;;;;;5.93;1.57;;;9.50;99.90;;;;;;4414772;28;657506;-75
2023/12/29 14:07:28;;;;;;;5.70;3.20;;;9.30;99.90;;;;;;4393542;28;657586;-75
2023/12/29 14:10:16;;;;;;;4.53;1.53;;;9.30;99.90;;;;;;4421598;28;658903;-75
2023/12/29 14:13:08;;;;;;;5.70;2.67;;;9.30;99.90;;;;;;4404748;28;657958;-75
2023/12/29 14:15:57;;;;;;;2.77;1.30;;;9.20;99.90;;;;;;4412363;28;658644;-73
2023/12/29 14:18:59;;;;;;;7.00;3.40;;;9.10;99.90;;;;;;4388584;28;658306;-73
2023/12/29 14:21:46;;;;;;;5.47;2.83;;;9.10;99.90;;;;;;4398109;28;657902;-72
2023/12/29 14:24:33;;;;;;;4.10;1.60;;;9.10;99.90;;;;;;4391500;28;658246;-73